sensor_id;sensor_type;location;lat;lon;timestamp;P1;durP1;ratioP1;P2;durP2;ratioP2
7051;SDS011;3567;52.444;13.556;2022-08-01T00:00:38;2.90;;;2.55;;
7051;SDS011;3567;52.444;13.556;2022-08-01T00:03:04;2.85;;;2.65;;
7051;SDS011;3567;52.444;13.556;2022-08-01T00:05:29;3.42;;;2.75;;
7051;SDS011;3567;52.444;13.556;2022-08-01T00:07:55;4.28;;;2.83;;
7051;SDS011;3567;52.444;13.556;2022-08-01T00:10:20;2.92;;;2.72;;
7051;SDS011;3567;52.444;13.556;2022-08-01T00:12:46;3.65;;;2.72;;
7051;SDS011;3567;52.444;13.556;2022-08-01T00:15:12;4.28;;;2.42;;
7051;SDS011;3567;52.444;13.556;2022-08-01T00:17:39;4.03;;;2.60;;
7051;SDS011;3567;52.444;13.556;2022-08-01T00:20:06;2.70;;;2.50;;
7051;SDS011;3567;52.444;13.556;2022-08-01T00:22:33;3.47;;;2.38;;
7051;SDS011;3567;52.444;13.556;2022-08-01T00:24:59;3.50;;;2.92;;
7051;SDS011;3567;52.444;13.556;2022-08-01T00:27:24;3.78;;;3.10;;
7051;SDS011;3567;52.444;13.556;2022-08-01T00:29:50;2.67;;;2.47;;
7051;SDS011;3567;52.444;13.556;2022-08-01T00:32:16;3.00;;;2.80;;
7051;SDS011;3567;52.444;13.556;2022-08-01T00:34:41;3.20;;;2.70;;
7051;SDS011;3567;52.444;13.556;2022-08-01T00:37:06;3.42;;;3.13;;
7051;SDS011;3567;52.444;13.556;2022-08-01T00:39:32;2.53;;;2.33;;
7051;SDS011;3567;52.444;13.556;2022-08-01T00:41:58;3.08;;;2.88;;
7051;SDS011;3567;52.444;13.556;2022-08-01T00:44:24;2.67;;;2.58;;
7051;SDS011;3567;52.444;13.556;2022-08-01T00:46:49;3.35;;;2.63;;
7051;SDS011;3567;52.444;13.556;2022-08-01T00:49:15;3.40;;;2.83;;
7051;SDS011;3567;52.444;13.556;2022-08-01T00:51:40;2.88;;;2.55;;
7051;SDS011;3567;52.444;13.556;2022-08-01T00:54:06;5.43;;;3.00;;
7051;SDS011;3567;52.444;13.556;2022-08-01T00:56:31;3.42;;;2.97;;
7051;SDS011;3567;52.444;13.556;2022-08-01T00:58:57;3.08;;;2.88;;
7051;SDS011;3567;52.444;13.556;2022-08-01T01:01:23;2.72;;;2.53;;
7051;SDS011;3567;52.444;13.556;2022-08-01T01:03:49;3.33;;;3.00;;
7051;SDS011;3567;52.444;13.556;2022-08-01T01:06:31;3.08;;;2.83;;
7051;SDS011;3567;52.444;13.556;2022-08-01T01:17:24;2.97;;;2.40;;
7051;SDS011;3567;52.444;13.556;2022-08-01T01:19:54;3.95;;;3.20;;
7051;SDS011;3567;52.444;13.556;2022-08-01T01:24:57;2.80;;;2.63;;
7051;SDS011;3567;52.444;13.556;2022-08-01T01:27:36;2.67;;;2.47;;
7051;SDS011;3567;52.444;13.556;2022-08-01T01:30:10;6.20;;;2.70;;
7051;SDS011;3567;52.444;13.556;2022-08-01T01:32:38;2.70;;;2.50;;
7051;SDS011;3567;52.444;13.556;2022-08-01T01:35:07;3.05;;;2.85;;
7051;SDS011;3567;52.444;13.556;2022-08-01T01:37:39;3.13;;;2.83;;
7051;SDS011;3567;52.444;13.556;2022-08-01T01:40:07;2.88;;;2.72;;
7051;SDS011;3567;52.444;13.556;2022-08-01T01:42:35;2.92;;;2.63;;
7051;SDS011;3567;52.444;13.556;2022-08-01T01:45:02;3.50;;;3.20;;
7051;SDS011;3567;52.444;13.556;2022-08-01T01:47:30;2.67;;;2.58;;
7051;SDS011;3567;52.444;13.556;2022-08-01T01:49:57;2.45;;;2.25;;
7051;SDS011;3567;52.444;13.556;2022-08-01T01:52:24;3.28;;;3.08;;
7051;SDS011;3567;52.444;13.556;2022-08-01T01:54:51;3.38;;;2.90;;
7051;SDS011;3567;52.444;13.556;2022-08-01T01:57:19;2.80;;;2.60;;
7051;SDS011;3567;52.444;13.556;2022-08-01T01:59:45;3.25;;;3.05;;
7051;SDS011;3567;52.444;13.556;2022-08-01T02:02:12;2.95;;;2.80;;
7051;SDS011;3567;52.444;13.556;2022-08-01T02:04:42;3.17;;;2.88;;
7051;SDS011;3567;52.444;13.556;2022-08-01T02:07:11;3.05;;;2.80;;
7051;SDS011;3567;52.444;13.556;2022-08-01T02:09:38;3.92;;;3.17;;
7051;SDS011;3567;52.444;13.556;2022-08-01T02:12:06;3.92;;;3.60;;
7051;SDS011;3567;52.444;13.556;2022-08-01T02:14:35;2.65;;;2.45;;
7051;SDS011;3567;52.444;13.556;2022-08-01T02:17:02;2.90;;;2.75;;
7051;SDS011;3567;52.444;13.556;2022-08-01T02:19:32;3.53;;;3.30;;
7051;SDS011;3567;52.444;13.556;2022-08-01T02:22:04;3.40;;;2.70;;
7051;SDS011;3567;52.444;13.556;2022-08-01T02:24:36;2.92;;;2.65;;
7051;SDS011;3567;52.444;13.556;2022-08-01T02:27:10;2.92;;;2.70;;
7051;SDS011;3567;52.444;13.556;2022-08-01T02:29:41;2.90;;;2.70;;
7051;SDS011;3567;52.444;13.556;2022-08-01T02:32:13;3.60;;;3.30;;
7051;SDS011;3567;52.444;13.556;2022-08-01T02:34:41;4.70;;;3.00;;
7051;SDS011;3567;52.444;13.556;2022-08-01T02:37:11;2.92;;;2.72;;
7051;SDS011;3567;52.444;13.556;2022-08-01T02:39:36;2.95;;;2.83;;
7051;SDS011;3567;52.444;13.556;2022-08-01T02:42:04;4.57;;;3.30;;
7051;SDS011;3567;52.444;13.556;2022-08-01T02:44:34;3.88;;;3.25;;
7051;SDS011;3567;52.444;13.556;2022-08-01T02:47:02;3.97;;;3.63;;
7051;SDS011;3567;52.444;13.556;2022-08-01T02:49:30;3.53;;;3.33;;
7051;SDS011;3567;52.444;13.556;2022-08-01T02:51:59;3.72;;;3.47;;
7051;SDS011;3567;52.444;13.556;2022-08-01T02:54:26;3.50;;;3.03;;
7051;SDS011;3567;52.444;13.556;2022-08-01T02:56:54;3.97;;;3.58;;
7051;SDS011;3567;52.444;13.556;2022-08-01T02:59:22;3.58;;;3.38;;
7051;SDS011;3567;52.444;13.556;2022-08-01T03:01:52;3.72;;;2.70;;
7051;SDS011;3567;52.444;13.556;2022-08-01T03:04:20;3.33;;;3.13;;
7051;SDS011;3567;52.444;13.556;2022-08-01T03:06:47;3.72;;;3.42;;
7051;SDS011;3567;52.444;13.556;2022-08-01T03:09:13;3.13;;;2.88;;
7051;SDS011;3567;52.444;13.556;2022-08-01T03:11:39;3.50;;;3.30;;
7051;SDS011;3567;52.444;13.556;2022-08-01T03:14:08;3.45;;;3.17;;
7051;SDS011;3567;52.444;13.556;2022-08-01T03:16:36;3.85;;;3.47;;
7051;SDS011;3567;52.444;13.556;2022-08-01T03:19:05;4.00;;;3.63;;
7051;SDS011;3567;52.444;13.556;2022-08-01T03:21:33;3.58;;;3.03;;
7051;SDS011;3567;52.444;13.556;2022-08-01T03:24:00;5.13;;;3.70;;
7051;SDS011;3567;52.444;13.556;2022-08-01T03:26:28;4.45;;;3.47;;
7051;SDS011;3567;52.444;13.556;2022-08-01T03:28:55;3.90;;;3.60;;
7051;SDS011;3567;52.444;13.556;2022-08-01T03:31:24;3.55;;;3.25;;
7051;SDS011;3567;52.444;13.556;2022-08-01T03:33:50;3.35;;;3.20;;
7051;SDS011;3567;52.444;13.556;2022-08-01T03:36:16;4.10;;;3.85;;
7051;SDS011;3567;52.444;13.556;2022-08-01T03:38:48;3.30;;;3.10;;
7051;SDS011;3567;52.444;13.556;2022-08-01T03:41:16;3.35;;;3.10;;
7051;SDS011;3567;52.444;13.556;2022-08-01T03:43:56;4.10;;;3.80;;
7051;SDS011;3567;52.444;13.556;2022-08-01T03:46:35;4.35;;;3.95;;
7051;SDS011;3567;52.444;13.556;2022-08-01T03:49:06;3.97;;;3.70;;
7051;SDS011;3567;52.444;13.556;2022-08-01T03:51:36;4.47;;;4.07;;
7051;SDS011;3567;52.444;13.556;2022-08-01T03:54:03;4.60;;;3.58;;
7051;SDS011;3567;52.444;13.556;2022-08-01T03:56:30;4.18;;;3.13;;
7051;SDS011;3567;52.444;13.556;2022-08-01T03:58:58;3.95;;;3.75;;
7051;SDS011;3567;52.444;13.556;2022-08-01T04:01:24;3.95;;;3.65;;
7051;SDS011;3567;52.444;13.556;2022-08-01T04:03:51;3.42;;;3.17;;
7051;SDS011;3567;52.444;13.556;2022-08-01T04:06:17;5.82;;;3.50;;
7051;SDS011;3567;52.444;13.556;2022-08-01T04:08:42;3.65;;;3.45;;
7051;SDS011;3567;52.444;13.556;2022-08-01T04:11:20;3.75;;;3.45;;
7051;SDS011;3567;52.444;13.556;2022-08-01T04:13:46;5.47;;;3.50;;
7051;SDS011;3567;52.444;13.556;2022-08-01T04:16:12;3.45;;;3.30;;
7051;SDS011;3567;52.444;13.556;2022-08-01T04:18:37;3.78;;;3.47;;
7051;SDS011;3567;52.444;13.556;2022-08-01T04:21:02;4.25;;;3.85;;
7051;SDS011;3567;52.444;13.556;2022-08-01T04:23:28;3.35;;;3.15;;
7051;SDS011;3567;52.444;13.556;2022-08-01T04:25:56;4.75;;;4.28;;
7051;SDS011;3567;52.444;13.556;2022-08-01T04:28:24;5.60;;;3.70;;
7051;SDS011;3567;52.444;13.556;2022-08-01T04:30:51;6.13;;;3.72;;
7051;SDS011;3567;52.444;13.556;2022-08-01T04:33:20;4.20;;;3.83;;
7051;SDS011;3567;52.444;13.556;2022-08-01T04:35:47;4.65;;;3.78;;
7051;SDS011;3567;52.444;13.556;2022-08-01T04:38:15;4.10;;;3.70;;
7051;SDS011;3567;52.444;13.556;2022-08-01T04:40:47;4.95;;;4.28;;
7051;SDS011;3567;52.444;13.556;2022-08-01T04:43:15;4.78;;;4.22;;
7051;SDS011;3567;52.444;13.556;2022-08-01T04:45:41;4.88;;;4.55;;
7051;SDS011;3567;52.444;13.556;2022-08-01T04:48:08;5.85;;;5.38;;
7051;SDS011;3567;52.444;13.556;2022-08-01T04:50:35;5.97;;;5.47;;
7051;SDS011;3567;52.444;13.556;2022-08-01T04:53:01;6.53;;;5.85;;
7051;SDS011;3567;52.444;13.556;2022-08-01T04:55:28;7.07;;;6.47;;
7051;SDS011;3567;52.444;13.556;2022-08-01T04:57:53;8.07;;;7.38;;
7051;SDS011;3567;52.444;13.556;2022-08-01T05:00:18;7.07;;;6.32;;
7051;SDS011;3567;52.444;13.556;2022-08-01T05:02:44;6.82;;;6.13;;
7051;SDS011;3567;52.444;13.556;2022-08-01T05:05:09;7.20;;;6.60;;
7051;SDS011;3567;52.444;13.556;2022-08-01T05:07:35;9.15;;;6.47;;
7051;SDS011;3567;52.444;13.556;2022-08-01T05:10:02;6.38;;;5.78;;
7051;SDS011;3567;52.444;13.556;2022-08-01T05:12:29;6.18;;;5.78;;
7051;SDS011;3567;52.444;13.556;2022-08-01T05:14:56;10.13;;;7.15;;
7051;SDS011;3567;52.444;13.556;2022-08-01T05:17:23;7.93;;;7.10;;
7051;SDS011;3567;52.444;13.556;2022-08-01T05:19:48;6.88;;;6.28;;
7051;SDS011;3567;52.444;13.556;2022-08-01T05:22:14;7.15;;;6.55;;
7051;SDS011;3567;52.444;13.556;2022-08-01T05:24:39;9.40;;;7.95;;
7051;SDS011;3567;52.444;13.556;2022-08-01T05:27:05;8.23;;;7.50;;
7051;SDS011;3567;52.444;13.556;2022-08-01T05:29:33;9.05;;;8.20;;
7051;SDS011;3567;52.444;13.556;2022-08-01T05:31:59;9.93;;;8.95;;
7051;SDS011;3567;52.444;13.556;2022-08-01T05:34:24;10.10;;;9.20;;
7051;SDS011;3567;52.444;13.556;2022-08-01T05:36:50;9.48;;;8.27;;
7051;SDS011;3567;52.444;13.556;2022-08-01T05:39:15;8.60;;;7.55;;
7051;SDS011;3567;52.444;13.556;2022-08-01T05:41:41;8.55;;;7.80;;
7051;SDS011;3567;52.444;13.556;2022-08-01T05:44:07;7.95;;;7.35;;
7051;SDS011;3567;52.444;13.556;2022-08-01T05:46:32;7.53;;;6.93;;
7051;SDS011;3567;52.444;13.556;2022-08-01T05:48:58;7.85;;;7.05;;
7051;SDS011;3567;52.444;13.556;2022-08-01T05:51:25;7.53;;;6.93;;
7051;SDS011;3567;52.444;13.556;2022-08-01T05:53:51;7.97;;;7.38;;
7051;SDS011;3567;52.444;13.556;2022-08-01T05:56:17;6.38;;;5.78;;
7051;SDS011;3567;52.444;13.556;2022-08-01T05:58:43;7.25;;;6.63;;
7051;SDS011;3567;52.444;13.556;2022-08-01T06:01:08;5.18;;;4.78;;
7051;SDS011;3567;52.444;13.556;2022-08-01T06:03:34;6.57;;;5.63;;
7051;SDS011;3567;52.444;13.556;2022-08-01T06:05:59;5.47;;;5.07;;
7051;SDS011;3567;52.444;13.556;2022-08-01T06:08:25;5.50;;;5.10;;
7051;SDS011;3567;52.444;13.556;2022-08-01T06:10:51;5.97;;;5.25;;
7051;SDS011;3567;52.444;13.556;2022-08-01T06:13:17;6.47;;;5.88;;
7051;SDS011;3567;52.444;13.556;2022-08-01T06:15:43;5.32;;;4.88;;
7051;SDS011;3567;52.444;13.556;2022-08-01T06:18:09;5.95;;;5.40;;
7051;SDS011;3567;52.444;13.556;2022-08-01T06:20:34;5.75;;;5.25;;
7051;SDS011;3567;52.444;13.556;2022-08-01T06:23:00;5.43;;;4.90;;
7051;SDS011;3567;52.444;13.556;2022-08-01T06:25:25;4.45;;;4.15;;
7051;SDS011;3567;52.444;13.556;2022-08-01T06:27:51;4.03;;;3.75;;
7051;SDS011;3567;52.444;13.556;2022-08-01T06:30:16;3.72;;;3.40;;
7051;SDS011;3567;52.444;13.556;2022-08-01T06:32:41;3.72;;;3.47;;
7051;SDS011;3567;52.444;13.556;2022-08-01T06:35:07;2.72;;;2.63;;
7051;SDS011;3567;52.444;13.556;2022-08-01T06:37:33;3.10;;;2.92;;
7051;SDS011;3567;52.444;13.556;2022-08-01T06:40:05;3.80;;;3.08;;
7051;SDS011;3567;52.444;13.556;2022-08-01T06:42:32;3.25;;;2.95;;
7051;SDS011;3567;52.444;13.556;2022-08-01T06:45:01;2.97;;;2.83;;
7051;SDS011;3567;52.444;13.556;2022-08-01T06:47:29;2.83;;;2.63;;
7051;SDS011;3567;52.444;13.556;2022-08-01T06:49:55;3.45;;;3.22;;
7051;SDS011;3567;52.444;13.556;2022-08-01T06:52:21;3.17;;;2.92;;
7051;SDS011;3567;52.444;13.556;2022-08-01T06:54:46;4.50;;;3.55;;
7051;SDS011;3567;52.444;13.556;2022-08-01T06:57:12;4.50;;;4.10;;
7051;SDS011;3567;52.444;13.556;2022-08-01T06:59:37;5.10;;;4.60;;
7051;SDS011;3567;52.444;13.556;2022-08-01T07:02:03;4.15;;;3.85;;
7051;SDS011;3567;52.444;13.556;2022-08-01T07:04:28;5.20;;;4.72;;
7051;SDS011;3567;52.444;13.556;2022-08-01T07:06:54;5.20;;;3.90;;
7051;SDS011;3567;52.444;13.556;2022-08-01T07:09:20;4.10;;;3.85;;
7051;SDS011;3567;52.444;13.556;2022-08-01T07:11:45;4.88;;;4.57;;
7051;SDS011;3567;52.444;13.556;2022-08-01T07:14:10;4.65;;;4.18;;
7051;SDS011;3567;52.444;13.556;2022-08-01T07:16:36;3.90;;;3.55;;
7051;SDS011;3567;52.444;13.556;2022-08-01T07:19:01;3.50;;;3.20;;
7051;SDS011;3567;52.444;13.556;2022-08-01T07:21:27;3.83;;;3.63;;
7051;SDS011;3567;52.444;13.556;2022-08-01T07:23:52;3.17;;;2.88;;
7051;SDS011;3567;52.444;13.556;2022-08-01T07:26:17;3.80;;;3.50;;
7051;SDS011;3567;52.444;13.556;2022-08-01T07:28:43;4.35;;;3.95;;
7051;SDS011;3567;52.444;13.556;2022-08-01T07:31:08;3.90;;;3.45;;
7051;SDS011;3567;52.444;13.556;2022-08-01T07:33:33;3.60;;;3.08;;
7051;SDS011;3567;52.444;13.556;2022-08-01T07:35:59;2.80;;;2.70;;
7051;SDS011;3567;52.444;13.556;2022-08-01T07:38:24;2.38;;;2.28;;
7051;SDS011;3567;52.444;13.556;2022-08-01T07:40:49;2.75;;;2.65;;
7051;SDS011;3567;52.444;13.556;2022-08-01T07:43:15;2.88;;;2.78;;
7051;SDS011;3567;52.444;13.556;2022-08-01T07:45:40;5.72;;;2.55;;
7051;SDS011;3567;52.444;13.556;2022-08-01T07:48:06;3.67;;;2.00;;
7051;SDS011;3567;52.444;13.556;2022-08-01T07:50:32;1.98;;;1.88;;
7051;SDS011;3567;52.444;13.556;2022-08-01T07:52:58;2.10;;;2.00;;
7051;SDS011;3567;52.444;13.556;2022-08-01T07:55:23;2.65;;;2.25;;
7051;SDS011;3567;52.444;13.556;2022-08-01T07:57:49;2.17;;;1.95;;
7051;SDS011;3567;52.444;13.556;2022-08-01T08:00:14;1.73;;;1.63;;
7051;SDS011;3567;52.444;13.556;2022-08-01T08:02:40;2.92;;;1.83;;
7051;SDS011;3567;52.444;13.556;2022-08-01T08:05:05;2.10;;;1.85;;
7051;SDS011;3567;52.444;13.556;2022-08-01T08:07:32;2.50;;;2.30;;
7051;SDS011;3567;52.444;13.556;2022-08-01T08:09:58;2.30;;;2.08;;
7051;SDS011;3567;52.444;13.556;2022-08-01T08:12:23;2.20;;;2.10;;
7051;SDS011;3567;52.444;13.556;2022-08-01T08:14:49;3.83;;;1.77;;
7051;SDS011;3567;52.444;13.556;2022-08-01T08:17:15;2.53;;;2.00;;
7051;SDS011;3567;52.444;13.556;2022-08-01T08:19:41;1.60;;;1.50;;
7051;SDS011;3567;52.444;13.556;2022-08-01T08:22:07;1.45;;;1.45;;
7051;SDS011;3567;52.444;13.556;2022-08-01T08:24:34;2.30;;;1.52;;
7051;SDS011;3567;52.444;13.556;2022-08-01T08:27:01;1.05;;;1.05;;
7051;SDS011;3567;52.444;13.556;2022-08-01T08:29:27;1.65;;;1.50;;
7051;SDS011;3567;52.444;13.556;2022-08-01T08:31:54;2.17;;;1.58;;
7051;SDS011;3567;52.444;13.556;2022-08-01T08:34:20;1.83;;;1.70;;
7051;SDS011;3567;52.444;13.556;2022-08-01T08:36:46;2.58;;;2.47;;
7051;SDS011;3567;52.444;13.556;2022-08-01T08:39:11;2.75;;;2.55;;
7051;SDS011;3567;52.444;13.556;2022-08-01T08:41:37;2.30;;;2.13;;
7051;SDS011;3567;52.444;13.556;2022-08-01T08:44:06;4.68;;;3.08;;
7051;SDS011;3567;52.444;13.556;2022-08-01T08:46:33;2.95;;;2.83;;
7051;SDS011;3567;52.444;13.556;2022-08-01T08:49:04;4.05;;;3.75;;
7051;SDS011;3567;52.444;13.556;2022-08-01T08:51:31;3.90;;;3.53;;
7051;SDS011;3567;52.444;13.556;2022-08-01T08:53:59;3.08;;;2.95;;
7051;SDS011;3567;52.444;13.556;2022-08-01T08:56:27;3.70;;;3.50;;
7051;SDS011;3567;52.444;13.556;2022-08-01T08:58:58;3.42;;;3.30;;
7051;SDS011;3567;52.444;13.556;2022-08-01T09:01:24;3.90;;;3.53;;
7051;SDS011;3567;52.444;13.556;2022-08-01T09:03:50;3.33;;;3.13;;
7051;SDS011;3567;52.444;13.556;2022-08-01T09:06:16;3.40;;;3.15;;
7051;SDS011;3567;52.444;13.556;2022-08-01T09:08:41;3.47;;;3.20;;
7051;SDS011;3567;52.444;13.556;2022-08-01T09:11:06;3.05;;;2.85;;
7051;SDS011;3567;52.444;13.556;2022-08-01T09:13:32;3.00;;;2.80;;
7051;SDS011;3567;52.444;13.556;2022-08-01T09:15:57;2.92;;;2.55;;
7051;SDS011;3567;52.444;13.556;2022-08-01T09:18:27;3.72;;;3.40;;
7051;SDS011;3567;52.444;13.556;2022-08-01T09:23:39;3.03;;;2.88;;
7051;SDS011;3567;52.444;13.556;2022-08-01T09:26:10;2.75;;;2.65;;
7051;SDS011;3567;52.444;13.556;2022-08-01T09:28:41;1.75;;;1.75;;
7051;SDS011;3567;52.444;13.556;2022-08-01T09:31:11;2.13;;;1.63;;
7051;SDS011;3567;52.444;13.556;2022-08-01T09:36:14;1.65;;;1.55;;
7051;SDS011;3567;52.444;13.556;2022-08-01T09:38:39;2.00;;;1.90;;
7051;SDS011;3567;52.444;13.556;2022-08-01T09:41:05;1.25;;;1.25;;
7051;SDS011;3567;52.444;13.556;2022-08-01T09:43:32;1.65;;;1.20;;
7051;SDS011;3567;52.444;13.556;2022-08-01T09:45:58;0.80;;;0.80;;
7051;SDS011;3567;52.444;13.556;2022-08-01T09:48:25;0.75;;;0.75;;
7051;SDS011;3567;52.444;13.556;2022-08-01T09:50:51;1.25;;;1.25;;
7051;SDS011;3567;52.444;13.556;2022-08-01T09:53:18;1.27;;;1.10;;
7051;SDS011;3567;52.444;13.556;2022-08-01T09:55:44;0.95;;;0.80;;
7051;SDS011;3567;52.444;13.556;2022-08-01T09:58:09;1.20;;;0.60;;
7051;SDS011;3567;52.444;13.556;2022-08-01T10:00:37;0.90;;;0.90;;
7051;SDS011;3567;52.444;13.556;2022-08-01T10:05:48;1.80;;;0.90;;
7051;SDS011;3567;52.444;13.556;2022-08-01T10:08:14;0.88;;;0.75;;
7051;SDS011;3567;52.444;13.556;2022-08-01T10:10:40;0.70;;;0.70;;
7051;SDS011;3567;52.444;13.556;2022-08-01T10:13:05;1.35;;;1.00;;
7051;SDS011;3567;52.444;13.556;2022-08-01T10:15:31;1.15;;;0.90;;
7051;SDS011;3567;52.444;13.556;2022-08-01T10:17:58;0.93;;;0.90;;
7051;SDS011;3567;52.444;13.556;2022-08-01T10:20:27;0.73;;;0.73;;
7051;SDS011;3567;52.444;13.556;2022-08-01T10:22:55;2.10;;;0.90;;
7051;SDS011;3567;52.444;13.556;2022-08-01T10:25:22;0.77;;;0.77;;
7051;SDS011;3567;52.444;13.556;2022-08-01T10:27:49;2.25;;;0.90;;
7051;SDS011;3567;52.444;13.556;2022-08-01T10:30:20;1.38;;;1.02;;
7051;SDS011;3567;52.444;13.556;2022-08-01T10:32:46;1.35;;;0.85;;
7051;SDS011;3567;52.444;13.556;2022-08-01T10:35:13;0.90;;;0.90;;
7051;SDS011;3567;52.444;13.556;2022-08-01T10:37:42;1.95;;;1.10;;
7051;SDS011;3567;52.444;13.556;2022-08-01T10:40:11;1.15;;;1.05;;
7051;SDS011;3567;52.444;13.556;2022-08-01T10:42:39;1.73;;;0.90;;
7051;SDS011;3567;52.444;13.556;2022-08-01T10:45:06;1.15;;;0.70;;
7051;SDS011;3567;52.444;13.556;2022-08-01T10:47:37;0.68;;;0.68;;
7051;SDS011;3567;52.444;13.556;2022-08-01T10:52:41;0.70;;;0.70;;
7051;SDS011;3567;52.444;13.556;2022-08-01T10:55:07;0.60;;;0.60;;
7051;SDS011;3567;52.444;13.556;2022-08-01T10:57:45;1.30;;;0.80;;
7051;SDS011;3567;52.444;13.556;2022-08-01T11:00:18;1.00;;;0.90;;
7051;SDS011;3567;52.444;13.556;2022-08-01T11:02:58;0.90;;;0.90;;
7051;SDS011;3567;52.444;13.556;2022-08-01T11:05:27;0.80;;;0.60;;
7051;SDS011;3567;52.444;13.556;2022-08-01T11:07:55;1.63;;;0.80;;
7051;SDS011;3567;52.444;13.556;2022-08-01T11:12:59;0.77;;;0.57;;
7051;SDS011;3567;52.444;13.556;2022-08-01T11:15:28;0.70;;;0.70;;
7051;SDS011;3567;52.444;13.556;2022-08-01T11:17:54;1.13;;;0.93;;
7051;SDS011;3567;52.444;13.556;2022-08-01T11:20:33;1.60;;;0.65;;
7051;SDS011;3567;52.444;13.556;2022-08-01T11:30:38;0.77;;;0.40;;
7051;SDS011;3567;52.444;13.556;2022-08-01T11:33:03;1.15;;;0.60;;
7051;SDS011;3567;52.444;13.556;2022-08-01T11:35:30;0.80;;;0.60;;
7051;SDS011;3567;52.444;13.556;2022-08-01T11:37:56;2.15;;;0.50;;
7051;SDS011;3567;52.444;13.556;2022-08-01T11:40:25;0.82;;;0.50;;
7051;SDS011;3567;52.444;13.556;2022-08-01T11:45:52;1.15;;;0.50;;
7051;SDS011;3567;52.444;13.556;2022-08-01T11:48:23;0.52;;;0.50;;
7051;SDS011;3567;52.444;13.556;2022-08-01T11:50:51;0.85;;;0.85;;
7051;SDS011;3567;52.444;13.556;2022-08-01T11:53:18;4.43;;;0.80;;
7051;SDS011;3567;52.444;13.556;2022-08-01T11:55:51;1.77;;;0.95;;
7051;SDS011;3567;52.444;13.556;2022-08-01T11:58:25;1.88;;;0.70;;
7051;SDS011;3567;52.444;13.556;2022-08-01T12:03:17;0.93;;;0.70;;
7051;SDS011;3567;52.444;13.556;2022-08-01T12:05:49;1.77;;;0.70;;
7051;SDS011;3567;52.444;13.556;2022-08-01T12:08:14;0.77;;;0.75;;
7051;SDS011;3567;52.444;13.556;2022-08-01T12:10:51;2.78;;;0.63;;
7051;SDS011;3567;52.444;13.556;2022-08-01T12:13:17;0.80;;;0.80;;
7051;SDS011;3567;52.444;13.556;2022-08-01T12:15:43;0.90;;;0.90;;
7051;SDS011;3567;52.444;13.556;2022-08-01T12:18:10;0.70;;;0.70;;
7051;SDS011;3567;52.444;13.556;2022-08-01T12:20:38;1.58;;;0.75;;
7051;SDS011;3567;52.444;13.556;2022-08-01T12:23:06;1.40;;;0.65;;
7051;SDS011;3567;52.444;13.556;2022-08-01T12:25:34;1.40;;;0.50;;
7051;SDS011;3567;52.444;13.556;2022-08-01T12:28:01;0.57;;;0.50;;
7051;SDS011;3567;52.444;13.556;2022-08-01T12:30:31;1.77;;;0.70;;
7051;SDS011;3567;52.444;13.556;2022-08-01T12:33:00;1.38;;;0.70;;
7051;SDS011;3567;52.444;13.556;2022-08-01T12:35:27;2.85;;;0.40;;
7051;SDS011;3567;52.444;13.556;2022-08-01T12:37:58;1.23;;;0.70;;
7051;SDS011;3567;52.444;13.556;2022-08-01T12:40:26;1.13;;;0.38;;
7051;SDS011;3567;52.444;13.556;2022-08-01T12:43:00;3.35;;;0.50;;
7051;SDS011;3567;52.444;13.556;2022-08-01T12:45:37;1.75;;;0.60;;
7051;SDS011;3567;52.444;13.556;2022-08-01T12:48:09;2.33;;;0.47;;
7051;SDS011;3567;52.444;13.556;2022-08-01T12:50:39;0.40;;;0.40;;
7051;SDS011;3567;52.444;13.556;2022-08-01T12:53:07;2.25;;;0.50;;
7051;SDS011;3567;52.444;13.556;2022-08-01T12:55:33;0.70;;;0.35;;
7051;SDS011;3567;52.444;13.556;2022-08-01T12:58:11;0.50;;;0.50;;
7051;SDS011;3567;52.444;13.556;2022-08-01T13:00:38;1.45;;;0.40;;
7051;SDS011;3567;52.444;13.556;2022-08-01T13:03:08;0.50;;;0.50;;
7051;SDS011;3567;52.444;13.556;2022-08-01T13:08:11;1.10;;;0.45;;
7051;SDS011;3567;52.444;13.556;2022-08-01T13:10:38;0.50;;;0.50;;
7051;SDS011;3567;52.444;13.556;2022-08-01T13:13:04;0.47;;;0.47;;
7051;SDS011;3567;52.444;13.556;2022-08-01T13:15:30;0.40;;;0.40;;
7051;SDS011;3567;52.444;13.556;2022-08-01T13:17:58;0.50;;;0.50;;
7051;SDS011;3567;52.444;13.556;2022-08-01T13:20:32;0.50;;;0.50;;
7051;SDS011;3567;52.444;13.556;2022-08-01T13:23:12;0.40;;;0.40;;
7051;SDS011;3567;52.444;13.556;2022-08-01T13:25:49;1.42;;;0.40;;
7051;SDS011;3567;52.444;13.556;2022-08-01T13:28:17;0.60;;;0.50;;
7051;SDS011;3567;52.444;13.556;2022-08-01T13:30:57;0.50;;;0.50;;
7051;SDS011;3567;52.444;13.556;2022-08-01T13:33:25;0.68;;;0.50;;
7051;SDS011;3567;52.444;13.556;2022-08-01T13:35:56;0.88;;;0.50;;
7051;SDS011;3567;52.444;13.556;2022-08-01T13:38:21;0.52;;;0.52;;
7051;SDS011;3567;52.444;13.556;2022-08-01T13:41:06;1.58;;;0.60;;
7051;SDS011;3567;52.444;13.556;2022-08-01T13:43:32;1.75;;;0.68;;
7051;SDS011;3567;52.444;13.556;2022-08-01T13:45:58;2.33;;;0.82;;
7051;SDS011;3567;52.444;13.556;2022-08-01T13:48:24;0.85;;;0.68;;
7051;SDS011;3567;52.444;13.556;2022-08-01T13:50:49;1.05;;;0.90;;
7051;SDS011;3567;52.444;13.556;2022-08-01T13:53:15;1.15;;;0.70;;
7051;SDS011;3567;52.444;13.556;2022-08-01T13:55:40;1.20;;;0.60;;
7051;SDS011;3567;52.444;13.556;2022-08-01T13:58:05;1.60;;;0.70;;
7051;SDS011;3567;52.444;13.556;2022-08-01T14:00:31;2.22;;;0.60;;
7051;SDS011;3567;52.444;13.556;2022-08-01T14:02:57;1.45;;;0.82;;
7051;SDS011;3567;52.444;13.556;2022-08-01T14:05:22;0.75;;;0.75;;
7051;SDS011;3567;52.444;13.556;2022-08-01T14:07:47;0.65;;;0.65;;
7051;SDS011;3567;52.444;13.556;2022-08-01T14:10:13;0.60;;;0.60;;
7051;SDS011;3567;52.444;13.556;2022-08-01T14:12:38;0.65;;;0.65;;
7051;SDS011;3567;52.444;13.556;2022-08-01T14:15:04;0.70;;;0.70;;
7051;SDS011;3567;52.444;13.556;2022-08-01T14:17:29;1.67;;;0.70;;
7051;SDS011;3567;52.444;13.556;2022-08-01T14:19:55;0.85;;;0.60;;
7051;SDS011;3567;52.444;13.556;2022-08-01T14:22:21;1.02;;;0.90;;
7051;SDS011;3567;52.444;13.556;2022-08-01T14:24:46;0.70;;;0.70;;
7051;SDS011;3567;52.444;13.556;2022-08-01T14:27:13;0.60;;;0.60;;
7051;SDS011;3567;52.444;13.556;2022-08-01T14:29:39;3.22;;;0.73;;
7051;SDS011;3567;52.444;13.556;2022-08-01T14:32:04;1.75;;;0.80;;
7051;SDS011;3567;52.444;13.556;2022-08-01T14:34:30;3.00;;;0.57;;
7051;SDS011;3567;52.444;13.556;2022-08-01T14:36:55;1.38;;;0.85;;
7051;SDS011;3567;52.444;13.556;2022-08-01T14:39:20;0.90;;;0.70;;
7051;SDS011;3567;52.444;13.556;2022-08-01T14:41:46;2.35;;;0.73;;
7051;SDS011;3567;52.444;13.556;2022-08-01T14:44:11;1.75;;;0.75;;
7051;SDS011;3567;52.444;13.556;2022-08-01T14:46:36;0.80;;;0.80;;
7051;SDS011;3567;52.444;13.556;2022-08-01T14:49:02;1.73;;;1.00;;
7051;SDS011;3567;52.444;13.556;2022-08-01T14:51:27;3.10;;;0.90;;
7051;SDS011;3567;52.444;13.556;2022-08-01T14:53:57;0.60;;;0.60;;
7051;SDS011;3567;52.444;13.556;2022-08-01T14:56:23;1.48;;;0.50;;
7051;SDS011;3567;52.444;13.556;2022-08-01T14:58:48;0.50;;;0.50;;
7051;SDS011;3567;52.444;13.556;2022-08-01T15:01:14;0.80;;;0.70;;
7051;SDS011;3567;52.444;13.556;2022-08-01T15:03:39;2.15;;;0.57;;
7051;SDS011;3567;52.444;13.556;2022-08-01T15:06:05;0.55;;;0.55;;
7051;SDS011;3567;52.444;13.556;2022-08-01T15:08:31;0.68;;;0.40;;
7051;SDS011;3567;52.444;13.556;2022-08-01T15:10:57;0.47;;;0.47;;
7051;SDS011;3567;52.444;13.556;2022-08-01T15:13:22;0.32;;;0.32;;
7051;SDS011;3567;52.444;13.556;2022-08-01T15:15:48;0.32;;;0.32;;
7051;SDS011;3567;52.444;13.556;2022-08-01T15:18:13;1.65;;;0.30;;
7051;SDS011;3567;52.444;13.556;2022-08-01T15:20:39;0.63;;;0.40;;
7051;SDS011;3567;52.444;13.556;2022-08-01T15:23:04;0.90;;;0.47;;
7051;SDS011;3567;52.444;13.556;2022-08-01T15:25:30;2.55;;;0.50;;
7051;SDS011;3567;52.444;13.556;2022-08-01T15:27:55;0.47;;;0.47;;
7051;SDS011;3567;52.444;13.556;2022-08-01T15:30:20;1.75;;;0.40;;
7051;SDS011;3567;52.444;13.556;2022-08-01T15:32:46;2.58;;;0.50;;
7051;SDS011;3567;52.444;13.556;2022-08-01T15:35:11;1.35;;;0.50;;
7051;SDS011;3567;52.444;13.556;2022-08-01T15:37:37;0.52;;;0.50;;
7051;SDS011;3567;52.444;13.556;2022-08-01T15:40:03;1.10;;;0.63;;